createdAt,value
2018-01-27T00:00:31.447Z,2.50
2018-01-27T00:02:59.161Z,2.60
2018-01-27T00:05:27.652Z,2.60
2018-01-27T00:07:55.273Z,2.60
2018-01-27T00:10:22.984Z,2.40
2018-01-27T00:12:51.591Z,2.20
2018-01-27T00:17:58.359Z,2.00
2018-01-27T00:20:26.941Z,2.10
2018-01-27T00:22:54.562Z,2.30
2018-01-27T00:25:22.251Z,2.30
2018-01-27T00:27:49.864Z,2.30
2018-01-27T00:30:17.480Z,2.30
2018-01-27T00:32:45.562Z,2.10
2018-01-27T00:35:13.163Z,2.00
2018-01-27T00:37:40.789Z,2.00
2018-01-27T00:40:08.484Z,2.00
2018-01-27T00:42:36.099Z,2.10
2018-01-27T00:45:03.726Z,2.20
2018-01-27T00:47:31.398Z,2.30
2018-01-27T00:52:26.639Z,2.40
2018-01-27T00:54:54.795Z,2.40
2018-01-27T00:57:23.372Z,2.30
2018-01-27T01:02:19.129Z,2.20
2018-01-27T01:04:47.612Z,2.10
2018-01-27T01:07:16.107Z,2.00
2018-01-27T01:09:43.806Z,2.00
2018-01-27T01:12:11.430Z,2.00
2018-01-27T01:14:40.012Z,2.00
2018-01-27T01:17:08.651Z,2.00
2018-01-27T01:19:36.270Z,2.00
2018-01-27T01:22:03.888Z,2.10
2018-01-27T01:24:31.587Z,2.10
2018-01-27T01:26:59.213Z,2.20
2018-01-27T01:29:26.835Z,2.40
2018-01-27T01:31:54.510Z,2.40
2018-01-27T01:34:22.136Z,2.50
2018-01-27T01:36:49.751Z,2.50
2018-01-27T01:39:18.396Z,2.40
2018-01-27T01:41:46.018Z,2.50
2018-01-27T01:44:19.302Z,2.60
2018-01-27T01:49:26.081Z,2.70
2018-01-27T01:51:53.704Z,2.70
2018-01-27T01:56:49.011Z,2.60
2018-01-27T01:59:16.632Z,2.50
2018-01-27T02:01:44.258Z,2.40
2018-01-27T02:04:11.949Z,2.50
2018-01-27T02:06:39.575Z,2.60
2018-01-27T02:09:07.182Z,2.50
2018-01-27T02:11:34.854Z,2.40
2018-01-27T02:14:02.477Z,2.30
2018-01-27T02:16:30.104Z,2.30
2018-01-27T02:21:25.419Z,2.20
2018-01-27T02:23:53.041Z,2.30
2018-01-27T02:26:20.716Z,2.30
2018-01-27T02:28:48.346Z,2.50
2018-01-27T02:31:15.981Z,2.50
2018-01-27T02:33:43.654Z,2.40
2018-01-27T02:36:11.277Z,2.30
2018-01-27T02:38:40.173Z,2.20
2018-01-27T02:41:07.870Z,2.10
2018-01-27T02:43:35.511Z,2.10
2018-01-27T02:48:30.803Z,2.10
2018-01-27T02:50:58.431Z,2.10
2018-01-27T02:53:26.520Z,2.10
2018-01-27T02:55:54.213Z,2.00
2018-01-27T02:58:21.830Z,2.00
2018-01-27T03:00:49.445Z,2.00
2018-01-27T03:03:17.131Z,2.00
2018-01-27T03:08:24.856Z,1.90
2018-01-27T03:10:52.490Z,1.90
2018-01-27T03:13:20.114Z,1.90
2018-01-27T03:15:47.802Z,1.90
2018-01-27T03:18:15.421Z,1.80
2018-01-27T03:20:43.039Z,1.80
2018-01-27T03:23:10.725Z,1.90
2018-01-27T03:25:38.356Z,1.90
2018-01-27T03:28:05.984Z,1.80
2018-01-27T03:33:01.274Z,1.90
2018-01-27T03:35:28.899Z,1.90
2018-01-27T03:37:56.621Z,2.00
2018-01-27T03:40:24.199Z,2.10
2018-01-27T03:42:51.914Z,2.20
2018-01-27T03:45:19.592Z,2.30
2018-01-27T03:47:47.209Z,2.30
2018-01-27T03:50:14.834Z,2.40
2018-01-27T03:52:42.523Z,2.30
2018-01-27T03:55:10.149Z,2.10
2018-01-27T03:57:37.770Z,1.90
2018-01-27T04:00:06.395Z,1.80
2018-01-27T04:02:34.027Z,1.70
2018-01-27T04:05:01.648Z,1.70
2018-01-27T04:07:29.339Z,1.90
2018-01-27T04:09:56.961Z,2.00
2018-01-27T04:12:25.541Z,2.00
2018-01-27T04:14:53.255Z,2.10
2018-01-27T04:17:20.888Z,2.20
2018-01-27T04:19:48.507Z,2.00
2018-01-27T04:22:16.182Z,2.00
2018-01-27T04:24:43.811Z,2.00
2018-01-27T04:27:11.994Z,2.10
2018-01-27T04:34:46.463Z,1.80
2018-01-27T04:37:14.086Z,1.90
2018-01-27T04:39:41.702Z,1.80
2018-01-27T04:42:09.385Z,1.70
2018-01-27T04:44:37.020Z,1.60
2018-01-27T04:47:04.643Z,1.50
2018-01-27T04:49:32.321Z,1.50
2018-01-27T04:51:59.948Z,1.40
2018-01-27T04:54:27.570Z,1.50
2018-01-27T04:56:55.267Z,1.30
2018-01-27T04:59:22.890Z,1.40
2018-01-27T05:01:50.546Z,1.40
2018-01-27T05:04:18.187Z,1.50
2018-01-27T05:06:45.811Z,1.50
2018-01-27T05:09:13.430Z,1.60
2018-01-27T05:11:41.958Z,1.70
2018-01-27T05:14:09.576Z,1.90
2018-01-27T05:16:37.202Z,2.10
2018-01-27T05:19:04.895Z,2.10
2018-01-27T05:21:32.512Z,2.00
2018-01-27T05:24:00.137Z,2.00
2018-01-27T05:26:27.811Z,1.90
2018-01-27T05:28:55.437Z,1.90
2018-01-27T05:31:23.062Z,1.90
2018-01-27T05:33:50.723Z,1.80
2018-01-27T05:36:18.346Z,1.80
2018-01-27T05:38:45.965Z,1.80
2018-01-27T05:41:13.667Z,1.70
2018-01-27T05:43:43.426Z,1.60
2018-01-27T05:46:11.050Z,1.80
2018-01-27T05:48:38.719Z,1.90
2018-01-27T05:51:06.335Z,1.90
2018-01-27T05:56:14.898Z,2.00
2018-01-27T06:01:10.662Z,1.80
2018-01-27T06:03:38.355Z,2.00
2018-01-27T06:06:05.979Z,2.00
2018-01-27T06:08:33.601Z,2.00
2018-01-27T06:11:01.272Z,2.00
2018-01-27T06:13:29.711Z,2.00
2018-01-27T06:15:57.327Z,1.70
2018-01-27T06:18:25.058Z,1.70
2018-01-27T06:20:52.631Z,1.50
2018-01-27T06:23:20.256Z,1.40
2018-01-27T06:25:47.935Z,1.30
2018-01-27T06:28:15.556Z,1.30
2018-01-27T06:30:43.178Z,1.30
2018-01-27T06:33:10.868Z,1.30
2018-01-27T06:35:38.490Z,1.30
2018-01-27T06:40:34.732Z,1.30
2018-01-27T06:43:02.370Z,1.30
2018-01-27T06:45:30.985Z,1.20
2018-01-27T06:47:58.667Z,1.40
2018-01-27T06:50:26.283Z,1.50
2018-01-27T06:52:53.925Z,1.40
2018-01-27T06:55:21.789Z,1.30
2018-01-27T06:57:49.270Z,1.30
2018-01-27T07:00:18.094Z,1.20
2018-01-27T07:02:45.785Z,1.10
2018-01-27T07:05:13.441Z,1.20
2018-01-27T07:07:41.669Z,1.20
2018-01-27T07:10:09.378Z,1.20
2018-01-27T07:12:37.099Z,1.20
2018-01-27T07:15:05.153Z,1.30
2018-01-27T07:17:32.832Z,1.40
2018-01-27T07:25:07.238Z,1.70
2018-01-27T07:27:35.089Z,1.80
2018-01-27T07:30:02.771Z,1.90
2018-01-27T07:32:31.570Z,1.90
2018-01-27T07:34:59.190Z,2.00
2018-01-27T07:37:26.869Z,2.00
2018-01-27T07:39:54.490Z,1.80
2018-01-27T07:42:22.115Z,1.80
2018-01-27T07:47:17.437Z,1.80
2018-01-27T07:49:45.054Z,1.90
2018-01-27T07:52:12.729Z,2.00
2018-01-27T07:54:40.365Z,2.10
2018-01-27T07:57:07.988Z,2.20
2018-01-27T08:02:03.304Z,1.90
2018-01-27T08:04:30.920Z,1.80
2018-01-27T08:06:58.600Z,1.80
2018-01-27T08:09:26.220Z,2.10
2018-01-27T08:11:53.891Z,2.20
2018-01-27T08:14:21.562Z,2.60
2018-01-27T08:16:49.258Z,2.90
2018-01-27T08:19:16.876Z,3.10
2018-01-27T08:21:44.568Z,3.10
2018-01-27T08:24:12.195Z,3.30
2018-01-27T08:26:39.812Z,3.50
2018-01-27T08:31:38.503Z,3.70
2018-01-27T08:34:06.440Z,4.00
2018-01-27T08:36:34.123Z,4.20
2018-01-27T08:41:40.894Z,4.40
2018-01-27T08:44:08.531Z,4.80
2018-01-27T08:46:36.154Z,5.10
2018-01-27T08:49:03.871Z,4.80
2018-01-27T08:51:31.495Z,4.60
2018-01-27T08:53:59.119Z,5.50
2018-01-27T08:56:26.806Z,4.90
2018-01-27T08:58:54.433Z,4.80
2018-01-27T09:03:49.732Z,5.30
2018-01-27T09:06:18.076Z,5.60
2018-01-27T09:08:45.699Z,5.80
2018-01-27T09:11:13.406Z,6.50
2018-01-27T09:13:41.002Z,7.00
2018-01-27T09:16:09.576Z,6.30
2018-01-27T09:18:37.247Z,6.10
2018-01-27T09:21:04.873Z,5.80
2018-01-27T09:23:33.312Z,5.90
2018-01-27T09:26:01.011Z,6.60
2018-01-27T09:28:28.644Z,7.10
2018-01-27T09:30:56.266Z,7.30
2018-01-27T09:33:23.938Z,7.40
2018-01-27T09:38:19.199Z,7.20
2018-01-27T09:40:46.871Z,7.80
2018-01-27T09:43:14.504Z,7.60
2018-01-27T09:45:42.132Z,7.40
2018-01-27T09:48:09.815Z,7.70
2018-01-27T09:50:37.437Z,7.40
2018-01-27T09:53:05.079Z,6.80
2018-01-27T09:55:32.782Z,7.10
2018-01-27T09:58:00.668Z,7.50
2018-01-27T10:00:28.296Z,8.80
2018-01-27T10:05:35.067Z,8.20
2018-01-27T10:08:02.749Z,8.40
2018-01-27T10:10:30.370Z,7.80
2018-01-27T10:12:57.992Z,7.70
2018-01-27T10:17:53.299Z,8.20
2018-01-27T10:22:49.046Z,8.50
2018-01-27T10:25:17.612Z,8.30
2018-01-27T10:27:45.236Z,8.60
2018-01-27T10:30:12.910Z,8.20
2018-01-27T10:32:41.369Z,7.40
2018-01-27T10:35:08.988Z,7.50
2018-01-27T10:37:36.664Z,8.40
2018-01-27T10:40:04.307Z,7.40
2018-01-27T10:42:31.930Z,8.50
2018-01-27T10:44:59.634Z,8.40
2018-01-27T10:47:27.266Z,9.20
2018-01-27T10:49:54.931Z,9.60
2018-01-27T10:52:22.678Z,9.00
2018-01-27T10:54:50.291Z,9.30
2018-01-27T10:57:18.859Z,8.20
2018-01-27T10:59:46.551Z,9.20
2018-01-27T11:02:14.170Z,9.70
2018-01-27T11:04:41.791Z,8.90
2018-01-27T11:07:09.473Z,8.90
2018-01-27T11:12:04.734Z,10.10
2018-01-27T11:14:33.532Z,10.60
2018-01-27T11:17:01.159Z,10.30
2018-01-27T11:19:28.787Z,10.30
2018-01-27T11:21:56.487Z,11.00
2018-01-27T11:24:24.136Z,11.20
2018-01-27T11:29:30.902Z,11.00
2018-01-27T11:31:58.540Z,11.00
2018-01-27T11:34:26.148Z,10.40
2018-01-27T11:36:53.839Z,10.40
2018-01-27T11:39:21.454Z,10.40
2018-01-27T11:44:16.753Z,11.00
2018-01-27T11:46:44.382Z,10.60
2018-01-27T11:49:12.007Z,10.50
2018-01-27T11:51:39.694Z,10.40
2018-01-27T11:54:07.324Z,10.60
2018-01-27T11:56:34.942Z,11.50
2018-01-27T11:59:02.636Z,11.90
2018-01-27T12:03:57.934Z,11.50
2018-01-27T12:06:25.594Z,11.00
2018-01-27T12:08:53.208Z,11.00
2018-01-27T12:11:20.828Z,11.10
2018-01-27T12:16:16.159Z,10.60
2018-01-27T12:18:43.778Z,11.00
2018-01-27T12:21:11.452Z,11.20
2018-01-27T12:23:39.073Z,10.30
2018-01-27T12:26:06.710Z,10.90
2018-01-27T12:28:34.395Z,10.80
2018-01-27T12:31:02.018Z,11.10
2018-01-27T12:35:57.348Z,10.90
2018-01-27T12:38:24.969Z,10.20
2018-01-27T12:40:52.586Z,9.70
2018-01-27T12:46:00.246Z,10.70
2018-01-27T12:48:27.929Z,10.40
2018-01-27T12:53:24.110Z,10.60
2018-01-27T12:55:51.798Z,10.80
2018-01-27T12:58:19.419Z,10.00
2018-01-27T13:00:47.037Z,9.30
2018-01-27T13:03:14.716Z,9.80
2018-01-27T13:05:42.441Z,10.30
2018-01-27T13:08:10.058Z,9.30
2018-01-27T13:10:37.751Z,9.60
2018-01-27T13:13:05.379Z,9.90
2018-01-27T13:15:33.990Z,9.90
2018-01-27T13:18:01.711Z,9.70
2018-01-27T13:20:29.338Z,9.10
2018-01-27T13:22:56.966Z,9.80
2018-01-27T13:25:24.638Z,9.30
2018-01-27T13:27:52.253Z,9.70
2018-01-27T13:30:19.877Z,9.40
2018-01-27T13:32:47.557Z,10.30
2018-01-27T13:35:15.189Z,10.70
2018-01-27T13:37:42.820Z,10.60
2018-01-27T13:40:10.503Z,10.30
2018-01-27T13:42:38.118Z,10.80
2018-01-27T13:45:05.755Z,10.70
2018-01-27T13:47:34.475Z,9.90
2018-01-27T13:50:02.103Z,10.00
2018-01-27T13:54:57.420Z,10.50
2018-01-27T13:57:25.031Z,10.20
2018-01-27T13:59:52.654Z,10.90
2018-01-27T14:02:21.138Z,10.80
2018-01-27T14:07:27.929Z,11.30
2018-01-27T14:09:55.574Z,10.40
2018-01-27T14:14:50.873Z,10.20
2018-01-27T14:17:18.497Z,10.20
2018-01-27T14:19:46.120Z,10.00
2018-01-27T14:22:14.548Z,10.70
2018-01-27T14:24:43.003Z,11.00
2018-01-27T14:27:10.611Z,11.10
2018-01-27T14:29:38.326Z,10.70
2018-01-27T14:32:09.026Z,10.80
2018-01-27T14:34:36.642Z,11.20
2018-01-27T14:37:04.324Z,10.60
2018-01-27T14:42:00.511Z,9.80
2018-01-27T14:44:28.175Z,9.90
2018-01-27T14:46:55.803Z,9.80
2018-01-27T14:49:23.438Z,9.80
2018-01-27T14:51:51.108Z,10.00
2018-01-27T14:54:18.764Z,10.30
2018-01-27T14:56:46.389Z,10.40
2018-01-27T14:59:14.090Z,10.60
2018-01-27T15:01:41.726Z,10.80
2018-01-27T15:04:09.906Z,11.00
2018-01-27T15:06:37.617Z,10.90
2018-01-27T15:09:05.240Z,10.80
2018-01-27T15:11:32.854Z,9.80
2018-01-27T15:14:00.565Z,8.90
2018-01-27T15:16:28.173Z,8.90
2018-01-27T15:18:55.784Z,9.20
2018-01-27T15:21:23.454Z,9.40
2018-01-27T15:26:18.715Z,9.60
2018-01-27T15:28:46.388Z,9.30
2018-01-27T15:33:53.174Z,9.00
2018-01-27T15:36:20.791Z,9.10
2018-01-27T15:38:48.483Z,8.90
2018-01-27T15:41:16.160Z,9.10
2018-01-27T15:43:45.309Z,9.10
2018-01-27T15:46:12.937Z,9.10
2018-01-27T15:48:40.623Z,8.90
2018-01-27T15:51:08.244Z,8.80
2018-01-27T15:53:36.702Z,8.60
2018-01-27T15:56:04.406Z,8.40
2018-01-27T15:58:32.027Z,8.30
2018-01-27T16:00:59.648Z,8.30
2018-01-27T16:03:27.348Z,8.10
2018-01-27T16:05:54.959Z,8.10
2018-01-27T16:08:23.523Z,8.10
2018-01-27T16:10:51.200Z,7.80
2018-01-27T16:15:46.638Z,7.70
2018-01-27T16:18:14.312Z,7.70
2018-01-27T16:20:41.945Z,7.70
2018-01-27T16:23:09.559Z,7.70
2018-01-27T16:25:37.251Z,7.70
2018-01-27T16:28:05.818Z,7.70
2018-01-27T16:30:34.388Z,7.60
2018-01-27T16:33:02.097Z,7.40
2018-01-27T16:35:29.750Z,7.40
2018-01-27T16:40:25.064Z,7.40
2018-01-27T16:42:52.690Z,7.20
2018-01-27T16:45:20.318Z,7.30
2018-01-27T16:47:48.020Z,7.00
2018-01-27T16:50:17.010Z,6.90
2018-01-27T16:52:44.664Z,7.00
2018-01-27T16:55:12.351Z,7.00
2018-01-27T17:00:19.263Z,6.90
2018-01-27T17:02:46.840Z,6.90
2018-01-27T17:05:15.289Z,6.80
2018-01-27T17:07:43.559Z,6.70
2018-01-27T17:12:50.489Z,6.60
2018-01-27T17:15:18.110Z,6.60
2018-01-27T17:17:45.744Z,6.50
2018-01-27T17:20:13.432Z,6.60
2018-01-27T17:22:41.600Z,6.50
2018-01-27T17:27:36.897Z,6.30
2018-01-27T17:30:04.531Z,6.20
2018-01-27T17:32:32.158Z,6.10
2018-01-27T17:34:59.832Z,6.10
2018-01-27T17:37:31.643Z,5.90
2018-01-27T17:39:59.339Z,5.60
2018-01-27T17:42:26.992Z,5.40
2018-01-27T17:44:54.596Z,5.30
2018-01-27T17:47:23.127Z,5.30
2018-01-27T17:52:18.381Z,5.30
2018-01-27T17:54:46.542Z,5.30
2018-01-27T17:57:16.219Z,5.00
2018-01-27T17:59:41.792Z,5.10
2018-01-27T18:02:09.475Z,5.10
2018-01-27T18:04:37.097Z,5.00
2018-01-27T18:07:04.718Z,5.00
2018-01-27T18:09:32.397Z,4.80
2018-01-27T18:12:00.040Z,4.90
2018-01-27T18:14:27.658Z,4.90
2018-01-27T18:16:55.338Z,4.80
2018-01-27T18:19:22.957Z,4.80
2018-01-27T18:21:51.553Z,4.70
2018-01-27T18:24:19.320Z,4.70
2018-01-27T18:26:46.899Z,4.80
2018-01-27T18:29:14.516Z,4.70
2018-01-27T18:31:42.208Z,4.60
2018-01-27T18:34:10.433Z,4.60
2018-01-27T18:39:19.180Z,4.70
2018-01-27T18:41:47.495Z,4.80
2018-01-27T18:44:14.504Z,4.80
2018-01-27T18:46:42.188Z,4.80
2018-01-27T18:49:09.852Z,4.70
2018-01-27T18:51:38.824Z,4.70
2018-01-27T18:54:06.513Z,4.70
2018-01-27T18:56:34.137Z,4.60
2018-01-27T18:59:01.767Z,4.60
2018-01-27T19:01:29.457Z,4.60
2018-01-27T19:03:57.095Z,4.50
2018-01-27T19:08:52.433Z,4.20
2018-01-27T19:11:20.510Z,4.00
2018-01-27T19:13:48.154Z,3.90
2018-01-27T19:18:43.478Z,3.80
2018-01-27T19:21:11.103Z,3.80
2018-01-27T19:23:38.787Z,3.80
2018-01-27T19:28:34.937Z,3.30
2018-01-27T19:33:30.277Z,3.30
2018-01-27T19:35:57.903Z,3.30
2018-01-27T19:40:53.231Z,3.40
2018-01-27T19:43:20.868Z,3.40
2018-01-27T19:45:48.561Z,3.50
2018-01-27T19:48:16.186Z,3.50
2018-01-27T19:50:43.834Z,3.50
2018-01-27T19:53:11.510Z,3.40
2018-01-27T19:55:39.129Z,3.30
2018-01-27T19:58:08.704Z,3.30
2018-01-27T20:05:45.186Z,3.30
2018-01-27T20:08:12.820Z,3.40
2018-01-27T20:10:40.433Z,3.50
2018-01-27T20:13:08.111Z,3.50
2018-01-27T20:15:35.734Z,3.50
2018-01-27T20:18:03.363Z,3.30
2018-01-27T20:20:31.079Z,3.30
2018-01-27T20:22:58.706Z,3.20
2018-01-27T20:25:26.333Z,3.30
2018-01-27T20:27:54.015Z,3.30
2018-01-27T20:30:23.467Z,3.30
2018-01-27T20:32:51.098Z,3.30
2018-01-27T20:37:46.464Z,3.20
2018-01-27T20:40:14.035Z,3.20
2018-01-27T20:42:41.759Z,3.20
2018-01-27T20:45:09.381Z,3.20
2018-01-27T20:47:37.008Z,3.00
2018-01-27T20:50:04.709Z,3.10
2018-01-27T20:52:32.330Z,3.00
2018-01-27T20:54:59.989Z,2.90
2018-01-27T20:57:27.668Z,2.90
2018-01-27T20:59:55.292Z,2.90
2018-01-27T21:02:22.927Z,2.80
2018-01-27T21:07:18.242Z,2.50
2018-01-27T21:09:45.893Z,2.20
2018-01-27T21:12:14.004Z,2.30
2018-01-27T21:14:41.650Z,2.30
2018-01-27T21:17:09.292Z,2.20
2018-01-27T21:22:18.073Z,2.70
2018-01-27T21:24:45.750Z,2.80
2018-01-27T21:27:13.391Z,3.10
2018-01-27T21:29:41.023Z,3.30
2018-01-27T21:32:08.732Z,3.30
2018-01-27T21:34:36.374Z,3.10
2018-01-27T21:37:04.006Z,2.70
2018-01-27T21:39:31.795Z,2.50
2018-01-27T21:41:59.500Z,2.50
2018-01-27T21:44:27.099Z,2.30
2018-01-27T21:46:58.715Z,2.20
2018-01-27T21:49:26.344Z,2.30
2018-01-27T21:51:53.992Z,2.40
2018-01-27T21:54:21.726Z,2.40
2018-01-27T21:56:49.371Z,2.50
2018-01-27T21:59:18.116Z,2.40
2018-01-27T22:01:47.523Z,2.40
2018-01-27T22:06:51.477Z,2.00
2018-01-27T22:09:17.130Z,2.10
2018-01-27T22:11:44.498Z,1.80
2018-01-27T22:14:12.280Z,1.90
2018-01-27T22:16:39.920Z,1.60
2018-01-27T22:19:07.556Z,1.40
2018-01-27T22:21:38.410Z,1.60
2018-01-27T22:24:06.867Z,1.60
2018-01-27T22:26:35.470Z,1.60
2018-01-27T22:29:03.174Z,1.60
2018-01-27T22:31:30.795Z,1.30
2018-01-27T22:33:58.440Z,0.90
2018-01-27T22:36:26.118Z,0.90
2018-01-27T22:38:53.776Z,1.10
2018-01-27T22:41:22.416Z,0.60
2018-01-27T22:46:29.197Z,0.50
2018-01-27T22:48:56.898Z,0.10
2018-01-27T22:51:24.534Z,0.40
2018-01-27T22:56:20.804Z,0.50
2018-01-27T22:58:48.421Z,0.30
2018-01-27T23:01:21.073Z,0.40
2018-01-27T23:03:48.700Z,0.60
2018-01-27T23:06:16.331Z,0.40
2018-01-27T23:11:12.530Z,0.10
2018-01-27T23:13:40.150Z,0.30
2018-01-27T23:16:07.830Z,0.20
2018-01-27T23:18:35.471Z,0.10
2018-01-27T23:21:03.092Z,0.00
2018-01-27T23:23:30.856Z,0.10
2018-01-27T23:25:58.482Z,0.20
2018-01-27T23:28:26.099Z,0.40
2018-01-27T23:30:53.793Z,0.40
2018-01-27T23:33:21.405Z,0.40
2018-01-27T23:35:49.042Z,0.50
2018-01-27T23:38:16.718Z,0.50
2018-01-27T23:40:44.346Z,0.60
2018-01-27T23:43:11.959Z,0.60
2018-01-27T23:45:39.669Z,0.60
2018-01-27T23:48:07.292Z,0.20
2018-01-27T23:50:35.257Z,-0.30
2018-01-27T23:53:02.948Z,-0.30
2018-01-27T23:55:30.568Z,-0.30
2018-01-27T23:57:58.191Z,-0.30
